createdAt,value
2022-10-12T00:01:05.673Z,101287.31
2022-10-12T00:03:34.063Z,101284.66
2022-10-12T00:06:10.226Z,101274.69
2022-10-12T00:08:40.155Z,101280.78
2022-10-12T00:11:11.459Z,101276.25
2022-10-12T00:13:38.422Z,101272.63
2022-10-12T00:16:08.149Z,101275.59
2022-10-12T00:18:36.455Z,101273.72
2022-10-12T00:21:05.783Z,101283.47
2022-10-12T00:23:33.705Z,101278.56
2022-10-12T00:26:11.950Z,101275.94
2022-10-12T00:28:39.372Z,101285.72
2022-10-12T00:31:13.080Z,101273.13
2022-10-12T00:33:40.739Z,101278.56
2022-10-12T00:36:16.637Z,101282.75
2022-10-12T00:38:44.732Z,101281.66
2022-10-12T00:41:13.289Z,101274.09
2022-10-12T00:43:43.638Z,101281.78
2022-10-12T00:46:25.217Z,101276.53
2022-10-12T00:49:05.490Z,101280.97
2022-10-12T00:51:32.822Z,101283.63
2022-10-12T00:54:05.965Z,101282.25
2022-10-12T00:56:37.265Z,101283.88
2022-10-12T00:59:10.801Z,101286.38
2022-10-12T01:01:38.456Z,101292.28
2022-10-12T01:04:06.832Z,101294.91
2022-10-12T01:06:34.721Z,101291.59
2022-10-12T01:09:03.047Z,101295.91
2022-10-12T01:11:30.012Z,101300.50
2022-10-12T01:13:57.984Z,101301.25
2022-10-12T01:16:32.920Z,101303.50
2022-10-12T01:19:57.410Z,101296.97
2022-10-12T01:22:24.775Z,101300.16
2022-10-12T01:25:40.164Z,101300.38
2022-10-12T01:28:49.182Z,101305.94
2022-10-12T01:31:38.076Z,101299.19
2022-10-12T01:34:27.300Z,101307.00
2022-10-12T01:37:11.151Z,101297.59
2022-10-12T01:39:52.689Z,101303.88
2022-10-12T01:42:40.663Z,101306.88
2022-10-12T01:45:12.619Z,101306.63
2022-10-12T01:47:41.433Z,101308.03
2022-10-12T01:50:12.847Z,101308.91
2022-10-12T01:53:06.030Z,101307.31
2022-10-12T01:56:05.557Z,101311.03
2022-10-12T01:58:45.188Z,101311.34
2022-10-12T02:01:30.019Z,101319.78
2022-10-12T02:04:10.087Z,101316.34
2022-10-12T02:07:01.882Z,101321.47
2022-10-12T02:09:34.060Z,101318.03
2022-10-12T02:12:08.489Z,101321.78
2022-10-12T02:14:42.195Z,101324.53
2022-10-12T02:17:14.526Z,101324.44
2022-10-12T02:19:53.432Z,101323.41
2022-10-12T02:22:20.690Z,101320.88
2022-10-12T02:24:51.976Z,101325.03
2022-10-12T02:27:21.291Z,101325.34
2022-10-12T02:29:48.824Z,101318.69
2022-10-12T02:32:29.199Z,101322.84
2022-10-12T02:35:29.089Z,101318.00
2022-10-12T02:38:12.014Z,101324.94
2022-10-12T02:40:55.458Z,101330.81
2022-10-12T02:43:33.000Z,101338.16
2022-10-12T02:46:01.624Z,101331.72
2022-10-12T02:48:30.079Z,101332.44
2022-10-12T02:50:59.062Z,101326.09
2022-10-12T02:53:29.922Z,101334.84
2022-10-12T02:56:12.647Z,101331.84
2022-10-12T02:58:41.409Z,101340.91
2022-10-12T03:01:08.381Z,101326.69
2022-10-12T03:03:35.372Z,101329.59
2022-10-12T03:06:02.493Z,101332.41
2022-10-12T03:08:29.543Z,101324.97
2022-10-12T03:11:12.642Z,101327.59
2022-10-12T03:13:39.553Z,101319.19
2022-10-12T03:16:10.401Z,101317.69
2022-10-12T03:18:38.392Z,101320.13
2022-10-12T03:21:05.950Z,101325.97
2022-10-12T03:23:32.963Z,101328.06
2022-10-12T03:25:59.999Z,101318.88
2022-10-12T03:28:27.029Z,101324.69
2022-10-12T03:30:53.978Z,101334.34
2022-10-12T03:33:21.027Z,101325.38
2022-10-12T03:35:48.554Z,101331.84
2022-10-12T03:38:16.703Z,101328.00
2022-10-12T03:40:45.055Z,101330.84
2022-10-12T03:43:12.604Z,101329.81
2022-10-12T03:45:39.703Z,101337.06
2022-10-12T03:48:07.648Z,101330.59
2022-10-12T03:50:35.975Z,101331.22
2022-10-12T03:53:04.967Z,101325.59
2022-10-12T03:55:33.423Z,101328.72
2022-10-12T03:58:00.512Z,101323.16
2022-10-12T04:00:28.750Z,101334.25
2022-10-12T04:02:55.776Z,101336.69
2022-10-12T04:05:23.333Z,101329.59
2022-10-12T04:07:50.668Z,101321.03
2022-10-12T04:10:17.826Z,101325.06
2022-10-12T04:12:45.560Z,101325.88
2022-10-12T04:15:13.038Z,101331.72
2022-10-12T04:17:41.132Z,101334.56
2022-10-12T04:20:10.942Z,101330.63
2022-10-12T04:22:39.005Z,101332.16
2022-10-12T04:25:06.876Z,101336.28
2022-10-12T04:27:34.152Z,101330.81
2022-10-12T04:30:01.096Z,101326.09
2022-10-12T04:32:28.073Z,101333.84
2022-10-12T04:34:55.061Z,101336.69
2022-10-12T04:37:21.976Z,101336.38
2022-10-12T04:39:48.858Z,101332.44
2022-10-12T04:42:15.760Z,101331.22
2022-10-12T04:44:42.669Z,101341.81
2022-10-12T04:47:09.618Z,101340.69
2022-10-12T04:49:36.601Z,101335.06
2022-10-12T04:52:03.575Z,101337.66
2022-10-12T04:54:32.753Z,101341.13
2022-10-12T04:56:59.695Z,101341.09
2022-10-12T04:59:26.716Z,101345.75
2022-10-12T05:01:54.505Z,101354.91
2022-10-12T05:04:21.770Z,101356.56
2022-10-12T05:06:48.712Z,101352.63
2022-10-12T05:09:17.179Z,101353.22
2022-10-12T05:11:44.682Z,101356.66
2022-10-12T05:14:11.812Z,101361.94
2022-10-12T05:16:38.761Z,101367.94
2022-10-12T05:19:05.749Z,101365.22
2022-10-12T05:21:33.656Z,101371.94
2022-10-12T05:24:00.640Z,101371.53
2022-10-12T05:26:27.699Z,101374.78
2022-10-12T05:28:54.709Z,101374.41
2022-10-12T05:31:21.703Z,101374.97
2022-10-12T05:33:48.622Z,101388.44
2022-10-12T05:36:15.766Z,101388.28
2022-10-12T05:38:42.815Z,101378.91
2022-10-12T05:41:09.958Z,101379.19
2022-10-12T05:43:36.878Z,101384.47
2022-10-12T05:46:04.671Z,101384.66
2022-10-12T05:48:31.707Z,101389.81
2022-10-12T05:50:58.667Z,101390.53
2022-10-12T05:53:25.729Z,101382.28
2022-10-12T05:56:00.782Z,101392.44
2022-10-12T05:58:30.418Z,101380.19
2022-10-12T06:01:07.590Z,101395.16
2022-10-12T06:03:35.326Z,101396.72
2022-10-12T06:06:03.508Z,101394.72
2022-10-12T06:08:31.583Z,101390.38
2022-10-12T06:10:58.561Z,101392.72
2022-10-12T06:13:26.051Z,101394.91
2022-10-12T06:15:53.479Z,101396.88
2022-10-12T06:18:21.096Z,101402.31
2022-10-12T06:21:08.819Z,101395.44
2022-10-12T06:23:39.226Z,101401.53
2022-10-12T06:26:06.575Z,101400.06
2022-10-12T06:28:33.629Z,101401.09
2022-10-12T06:31:01.015Z,101406.91
2022-10-12T06:33:28.342Z,101408.31
2022-10-12T06:35:56.104Z,101401.16
2022-10-12T06:38:23.789Z,101403.16
2022-10-12T06:40:50.778Z,101406.94
2022-10-12T06:43:17.711Z,101392.38
2022-10-12T06:45:44.663Z,101390.94
2022-10-12T06:48:16.180Z,101403.69
2022-10-12T06:50:46.273Z,101396.59
2022-10-12T06:53:13.176Z,101399.88
2022-10-12T06:55:40.900Z,101400.25
2022-10-12T06:58:08.006Z,101400.69
2022-10-12T07:00:35.114Z,101394.66
2022-10-12T07:03:02.045Z,101399.41
2022-10-12T07:05:29.404Z,101395.22
2022-10-12T07:07:56.667Z,101394.34
2022-10-12T07:10:25.007Z,101396.19
2022-10-12T07:12:51.987Z,101411.53
2022-10-12T07:15:19.436Z,101397.19
2022-10-12T07:17:46.452Z,101406.06
2022-10-12T07:20:13.610Z,101403.25
2022-10-12T07:22:40.544Z,101398.63
2022-10-12T07:25:08.021Z,101400.28
2022-10-12T07:27:35.191Z,101395.75
2022-10-12T07:30:02.852Z,101405.34
2022-10-12T07:32:29.759Z,101399.31
2022-10-12T07:34:57.059Z,101409.06
2022-10-12T07:37:23.969Z,101398.28
2022-10-12T07:39:50.918Z,101406.50
2022-10-12T07:42:19.476Z,101398.50
2022-10-12T07:44:46.647Z,101405.16
2022-10-12T07:47:13.602Z,101388.16
2022-10-12T07:49:40.559Z,101406.13
2022-10-12T07:52:07.451Z,101399.88
2022-10-12T07:54:34.393Z,101393.41
2022-10-12T07:57:01.324Z,101398.69
2022-10-12T07:59:28.464Z,101399.69
2022-10-12T08:01:55.516Z,101408.81
2022-10-12T08:04:22.514Z,101403.44
2022-10-12T08:06:49.529Z,101408.84
2022-10-12T08:09:16.476Z,101395.38
2022-10-12T08:11:43.574Z,101398.97
2022-10-12T08:14:17.037Z,101396.16
2022-10-12T08:16:44.954Z,101398.09
2022-10-12T08:19:12.674Z,101400.75
2022-10-12T08:21:41.479Z,101401.41
2022-10-12T08:24:10.067Z,101399.53
2022-10-12T08:26:37.079Z,101399.59
2022-10-12T08:29:06.088Z,101401.16
2022-10-12T08:31:33.108Z,101391.97
2022-10-12T08:34:00.831Z,101399.31
2022-10-12T08:36:28.067Z,101398.28
2022-10-12T08:38:55.496Z,101407.06
2022-10-12T08:41:34.233Z,101399.84
2022-10-12T08:44:52.335Z,101401.75
2022-10-12T08:47:52.267Z,101397.94
2022-10-12T08:50:30.815Z,101398.09
2022-10-12T08:53:47.465Z,101407.78
2022-10-12T08:56:21.715Z,101406.00
2022-10-12T08:58:51.179Z,101405.72
2022-10-12T09:01:38.691Z,101409.22
2022-10-12T09:04:36.995Z,101401.16
2022-10-12T09:07:27.255Z,101395.88
2022-10-12T09:10:22.981Z,101394.78
2022-10-12T09:13:08.781Z,101395.66
2022-10-12T09:15:57.141Z,101394.09
2022-10-12T09:18:49.730Z,101386.03
2022-10-12T09:21:20.684Z,101386.00
2022-10-12T09:23:49.187Z,101384.34
2022-10-12T09:26:28.985Z,101393.03
2022-10-12T09:28:58.378Z,101394.72
2022-10-12T09:32:14.949Z,101384.72
2022-10-12T09:34:42.660Z,101380.44
2022-10-12T09:37:20.851Z,101385.34
2022-10-12T09:39:48.410Z,101385.97
2022-10-12T09:42:16.434Z,101384.13
2022-10-12T09:45:01.533Z,101380.03
2022-10-12T09:47:33.500Z,101384.72
2022-10-12T09:50:07.286Z,101383.13
2022-10-12T09:52:36.956Z,101387.97
2022-10-12T09:55:23.226Z,101379.44
2022-10-12T09:58:19.455Z,101377.44
2022-10-12T10:01:06.338Z,101382.47
2022-10-12T10:03:33.308Z,101387.78
2022-10-12T10:06:05.463Z,101394.34
2022-10-12T10:08:45.734Z,101387.88
2022-10-12T10:11:31.607Z,101388.72
2022-10-12T10:14:01.494Z,101380.09
2022-10-12T10:16:30.516Z,101377.19
2022-10-12T10:19:01.683Z,101382.69
2022-10-12T10:21:40.230Z,101377.81
2022-10-12T10:24:20.077Z,101387.50
2022-10-12T10:26:55.442Z,101377.69
2022-10-12T10:29:32.849Z,101372.22
2022-10-12T10:32:24.357Z,101376.31
2022-10-12T10:35:12.757Z,101364.75
2022-10-12T10:37:56.690Z,101363.78
2022-10-12T10:40:30.770Z,101366.78
2022-10-12T10:43:04.104Z,101356.59
2022-10-12T10:45:49.180Z,101358.09
2022-10-12T10:48:20.881Z,101351.63
2022-10-12T10:51:05.152Z,101349.25
2022-10-12T10:53:45.565Z,101347.38
2022-10-12T10:56:31.859Z,101344.94
2022-10-12T10:59:14.944Z,101353.66
2022-10-12T11:02:03.496Z,101349.59
2022-10-12T11:04:39.802Z,101356.59
2022-10-12T11:07:33.258Z,101346.81
2022-10-12T11:10:06.243Z,101348.88
2022-10-12T11:12:46.368Z,101345.94
2022-10-12T11:15:23.743Z,101346.03
2022-10-12T11:18:30.776Z,101350.50
2022-10-12T11:21:29.875Z,101346.94
2022-10-12T11:24:16.395Z,101339.75
2022-10-12T11:27:31.676Z,101339.78
2022-10-12T11:30:10.231Z,101341.53
2022-10-12T11:32:56.308Z,101340.66
2022-10-12T11:35:34.903Z,101344.25
2022-10-12T11:38:15.185Z,101334.41
2022-10-12T11:41:09.210Z,101341.56
2022-10-12T11:44:13.242Z,101328.97
2022-10-12T11:46:53.249Z,101322.69
2022-10-12T11:49:44.576Z,101313.75
2022-10-12T11:52:12.396Z,101318.19
2022-10-12T11:55:17.201Z,101321.81
2022-10-12T11:57:44.429Z,101316.38
2022-10-12T12:00:29.888Z,101320.91
2022-10-12T12:03:26.806Z,101320.00
2022-10-12T12:05:53.870Z,101321.63
2022-10-12T12:08:39.154Z,101316.38
2022-10-12T12:11:26.235Z,101319.06
2022-10-12T12:14:21.799Z,101325.22
2022-10-12T12:16:49.818Z,101323.50
2022-10-12T12:19:39.694Z,101317.69
2022-10-12T12:22:23.638Z,101319.06
2022-10-12T12:25:13.380Z,101323.53
2022-10-12T12:28:00.504Z,101322.03
2022-10-12T12:30:40.666Z,101313.94
2022-10-12T12:33:30.970Z,101311.59
2022-10-12T12:36:02.984Z,101309.00
2022-10-12T12:38:46.248Z,101312.66
2022-10-12T12:41:19.870Z,101315.09
2022-10-12T12:43:58.098Z,101315.91
2022-10-12T12:46:46.455Z,101316.50
2022-10-12T12:49:48.921Z,101312.28
2022-10-12T12:52:24.722Z,101311.53
2022-10-12T12:55:20.214Z,101308.75
2022-10-12T12:58:29.414Z,101314.03
2022-10-12T13:01:27.879Z,101313.38
2022-10-12T13:04:55.737Z,101303.81
2022-10-12T13:07:52.912Z,101311.47
2022-10-12T13:11:15.353Z,101304.56
2022-10-12T13:13:59.667Z,101302.06
2022-10-12T13:19:36.635Z,101314.41
2022-10-12T13:22:13.466Z,101305.44
2022-10-12T13:24:53.954Z,101313.47
2022-10-12T13:27:49.173Z,101311.81
2022-10-12T13:31:09.515Z,101310.44
2022-10-12T13:33:56.142Z,101318.94
2022-10-12T13:36:36.486Z,101311.78
2022-10-12T13:39:21.168Z,101309.97
2022-10-12T13:41:53.407Z,101304.13
2022-10-12T13:44:28.334Z,101309.44
2022-10-12T13:47:01.840Z,101311.69
2022-10-12T13:49:35.245Z,101307.44
2022-10-12T13:52:21.860Z,101303.50
2022-10-12T13:54:50.423Z,101306.03
2022-10-12T13:57:50.289Z,101309.34
2022-10-12T14:00:17.294Z,101309.28
2022-10-12T14:02:58.114Z,101308.06
2022-10-12T14:05:28.108Z,101310.59
2022-10-12T14:08:28.757Z,101315.72
2022-10-12T14:10:58.431Z,101314.88
2022-10-12T14:13:34.746Z,101309.34
2022-10-12T14:16:04.720Z,101310.41
2022-10-12T14:18:44.963Z,101310.28
2022-10-12T14:21:18.627Z,101311.75
2022-10-12T14:24:19.683Z,101315.72
2022-10-12T14:26:56.991Z,101318.91
2022-10-12T14:29:46.425Z,101315.50
2022-10-12T14:32:13.188Z,101314.38
2022-10-12T14:35:03.258Z,101315.34
2022-10-12T14:37:30.761Z,101311.09
2022-10-12T14:40:02.481Z,101319.25
2022-10-12T14:42:35.713Z,101314.38
2022-10-12T14:45:06.859Z,101319.88
2022-10-12T14:47:39.270Z,101314.59
2022-10-12T14:50:09.721Z,101311.13
2022-10-12T14:52:43.952Z,101312.13
2022-10-12T14:55:27.655Z,101308.97
2022-10-12T14:57:55.100Z,101309.09
2022-10-12T15:00:33.835Z,101311.28
2022-10-12T15:03:01.624Z,101311.38
2022-10-12T15:05:31.902Z,101319.09
2022-10-12T15:08:00.761Z,101315.19
2022-10-12T15:10:29.224Z,101314.59
2022-10-12T15:12:56.162Z,101310.22
2022-10-12T15:15:29.288Z,101306.28
2022-10-12T15:17:57.227Z,101310.00
2022-10-12T15:20:25.763Z,101311.41
2022-10-12T15:22:52.794Z,101305.97
2022-10-12T15:26:01.029Z,101297.09
2022-10-12T15:28:29.868Z,101306.56
2022-10-12T15:31:20.025Z,101303.72
2022-10-12T15:33:47.067Z,101300.53
2022-10-12T15:36:14.067Z,101310.72
2022-10-12T15:38:41.003Z,101300.97
2022-10-12T15:41:17.373Z,101299.41
2022-10-12T15:43:44.307Z,101296.75
2022-10-12T15:46:14.386Z,101296.69
2022-10-12T15:48:41.821Z,101292.59
2022-10-12T15:51:19.493Z,101295.31
2022-10-12T15:53:46.560Z,101299.28
2022-10-12T15:56:16.087Z,101296.66
2022-10-12T15:58:43.565Z,101302.69
2022-10-12T16:01:19.759Z,101308.13
2022-10-12T16:03:47.950Z,101309.06
2022-10-12T16:06:15.303Z,101308.16
2022-10-12T16:08:42.550Z,101305.88
2022-10-12T16:11:14.634Z,101302.91
2022-10-12T16:13:48.011Z,101313.81
2022-10-12T16:16:19.275Z,101310.16
2022-10-12T16:18:46.187Z,101317.63
2022-10-12T16:21:13.209Z,101311.00
2022-10-12T16:23:41.099Z,101316.31
2022-10-12T16:26:13.385Z,101320.69
2022-10-12T16:28:40.960Z,101319.22
2022-10-12T16:31:15.311Z,101310.38
2022-10-12T16:33:42.364Z,101319.75
2022-10-12T16:36:13.401Z,101315.75
2022-10-12T16:38:41.013Z,101319.94
2022-10-12T16:41:13.585Z,101311.31
2022-10-12T16:43:40.889Z,101316.28
2022-10-12T16:46:08.479Z,101318.28
2022-10-12T16:48:36.350Z,101309.69
2022-10-12T16:51:10.854Z,101317.75
2022-10-12T16:53:38.151Z,101312.34
2022-10-12T16:56:05.500Z,101308.69
2022-10-12T16:58:33.046Z,101310.56
2022-10-12T17:01:09.845Z,101298.28
2022-10-12T17:03:36.880Z,101310.72
2022-10-12T17:06:04.033Z,101311.28
2022-10-12T17:08:35.682Z,101309.31
2022-10-12T17:11:11.939Z,101305.97
2022-10-12T17:13:43.135Z,101311.28
2022-10-12T17:16:33.975Z,101311.84
2022-10-12T17:19:01.188Z,101309.06
2022-10-12T17:21:28.776Z,101311.50
2022-10-12T17:24:00.247Z,101314.69
2022-10-12T17:26:27.535Z,101315.75
2022-10-12T17:28:54.834Z,101311.88
2022-10-12T17:31:21.810Z,101309.81
2022-10-12T17:33:49.310Z,101312.03
2022-10-12T17:36:16.375Z,101314.34
2022-10-12T17:38:43.310Z,101311.41
2022-10-12T17:41:10.224Z,101314.03
2022-10-12T17:43:37.154Z,101310.75
2022-10-12T17:46:07.301Z,101313.78
2022-10-12T17:48:34.555Z,101320.09
2022-10-12T17:51:12.329Z,101312.25
2022-10-12T17:53:40.093Z,101307.63
2022-10-12T17:56:11.358Z,101307.91
2022-10-12T17:58:38.344Z,101309.75
2022-10-12T18:01:08.389Z,101305.06
2022-10-12T18:03:35.752Z,101293.47
2022-10-12T18:06:08.091Z,101301.75
2022-10-12T18:08:35.656Z,101301.44
2022-10-12T18:11:05.624Z,101306.09
2022-10-12T18:13:34.360Z,101300.09
2022-10-12T18:16:01.813Z,101308.78
2022-10-12T18:18:29.237Z,101306.75
2022-10-12T18:20:56.212Z,101313.63
2022-10-12T18:23:23.158Z,101311.88
2022-10-12T18:25:51.119Z,101306.75
2022-10-12T18:28:18.259Z,101304.72
2022-10-12T18:30:50.643Z,101309.19
2022-10-12T18:33:17.957Z,101310.31
2022-10-12T18:35:45.014Z,101308.56
2022-10-12T18:38:11.975Z,101311.44
2022-10-12T18:40:42.235Z,101307.47
2022-10-12T18:43:10.374Z,101313.84
2022-10-12T18:45:45.048Z,101308.19
2022-10-12T18:48:13.108Z,101310.72
2022-10-12T18:50:40.276Z,101309.09
2022-10-12T18:53:07.348Z,101308.81
2022-10-12T18:55:40.671Z,101317.53
2022-10-12T18:58:07.679Z,101304.91
2022-10-12T19:00:34.679Z,101319.16
2022-10-12T19:03:01.659Z,101319.34
2022-10-12T19:05:28.598Z,101317.59
2022-10-12T19:07:55.546Z,101313.50
2022-10-12T19:10:22.473Z,101317.84
2022-10-12T19:12:49.415Z,101312.59
2022-10-12T19:15:16.500Z,101318.94
2022-10-12T19:17:43.451Z,101312.44
2022-10-12T19:20:10.802Z,101320.94
2022-10-12T19:22:38.242Z,101322.13
2022-10-12T19:25:05.855Z,101319.25
2022-10-12T19:27:32.804Z,101320.22
2022-10-12T19:29:59.747Z,101323.34
2022-10-12T19:32:26.685Z,101325.66
2022-10-12T19:34:54.617Z,101327.50
2022-10-12T19:37:21.668Z,101327.19
2022-10-12T19:39:49.123Z,101327.69
2022-10-12T19:42:16.322Z,101332.81
2022-10-12T19:44:43.539Z,101327.19
2022-10-12T19:47:10.605Z,101331.66
2022-10-12T19:49:40.886Z,101331.78
2022-10-12T19:52:10.109Z,101333.91
2022-10-12T19:54:37.075Z,101329.28
2022-10-12T19:57:04.248Z,101335.41
2022-10-12T19:59:31.201Z,101333.19
2022-10-12T20:01:58.172Z,101329.06
2022-10-12T20:04:25.124Z,101328.41
2022-10-12T20:06:52.072Z,101322.50
2022-10-12T20:09:19.041Z,101326.00
2022-10-12T20:11:45.969Z,101320.81
2022-10-12T20:14:12.968Z,101322.22
2022-10-12T20:16:40.139Z,101321.66
2022-10-12T20:19:07.328Z,101320.81
2022-10-12T20:21:36.481Z,101332.13
2022-10-12T20:24:04.061Z,101328.34
2022-10-12T20:26:31.106Z,101323.84
2022-10-12T20:28:58.242Z,101329.53
2022-10-12T20:31:27.463Z,101324.31
2022-10-12T20:33:56.152Z,101323.94
2022-10-12T20:36:26.598Z,101329.84
2022-10-12T20:38:54.237Z,101335.69
2022-10-12T20:41:21.945Z,101331.69
2022-10-12T20:43:49.081Z,101332.41
2022-10-12T20:46:18.372Z,101335.22
2022-10-12T20:48:45.935Z,101328.16
2022-10-12T20:51:35.917Z,101328.09
2022-10-12T20:54:05.661Z,101334.88
2022-10-12T20:56:33.949Z,101337.00
2022-10-12T20:59:01.777Z,101331.81
2022-10-12T21:01:29.308Z,101328.88
2022-10-12T21:03:56.918Z,101335.50
2022-10-12T21:06:25.060Z,101330.66
2022-10-12T21:08:54.426Z,101330.94
2022-10-12T21:11:22.149Z,101330.81
2022-10-12T21:13:49.685Z,101328.03
2022-10-12T21:16:16.877Z,101339.78
2022-10-12T21:18:43.855Z,101331.00
2022-10-12T21:21:16.212Z,101330.31
2022-10-12T21:23:45.964Z,101334.22
2022-10-12T21:26:17.379Z,101334.28
2022-10-12T21:28:45.502Z,101332.75
2022-10-12T21:31:13.793Z,101330.81
2022-10-12T21:33:41.302Z,101327.03
2022-10-12T21:36:19.249Z,101327.78
2022-10-12T21:38:47.242Z,101332.72
2022-10-12T21:41:16.636Z,101321.84
2022-10-12T21:43:45.303Z,101336.25
2022-10-12T21:46:17.906Z,101345.31
2022-10-12T21:48:45.741Z,101342.47
2022-10-12T21:51:13.179Z,101341.84
2022-10-12T21:53:40.851Z,101336.53
2022-10-12T21:56:18.658Z,101341.56
2022-10-12T21:58:46.542Z,101336.75
2022-10-12T22:01:17.488Z,101338.00
2022-10-12T22:03:45.257Z,101343.88
2022-10-12T22:06:18.425Z,101344.88
2022-10-12T22:08:54.304Z,101333.25
2022-10-12T22:11:21.840Z,101340.41
2022-10-12T22:13:49.120Z,101340.97
2022-10-12T22:16:18.588Z,101334.13
2022-10-12T22:18:46.120Z,101340.09
2022-10-12T22:21:16.758Z,101351.13
2022-10-12T22:23:45.129Z,101345.88
2022-10-12T22:26:17.612Z,101342.97
2022-10-12T22:28:44.828Z,101339.25
2022-10-12T22:31:14.446Z,101344.63
2022-10-12T22:33:41.493Z,101342.59
2022-10-12T22:36:11.211Z,101344.38
2022-10-12T22:38:38.219Z,101343.25
2022-10-12T22:41:15.245Z,101341.72
2022-10-12T22:43:42.703Z,101345.34
2022-10-12T22:46:10.186Z,101347.78
2022-10-12T22:48:38.094Z,101349.69
2022-10-12T22:51:06.596Z,101348.19
2022-10-12T22:53:34.778Z,101352.69
2022-10-12T22:56:13.198Z,101346.81
2022-10-12T22:58:40.199Z,101343.59
2022-10-12T23:01:13.006Z,101344.28
2022-10-12T23:03:40.950Z,101347.34
2022-10-12T23:06:09.182Z,101346.09
2022-10-12T23:08:36.852Z,101345.63
2022-10-12T23:11:10.616Z,101342.97
2022-10-12T23:13:39.156Z,101342.06
2022-10-12T23:16:19.706Z,101345.69
2022-10-12T23:18:47.195Z,101340.47
2022-10-12T23:21:17.399Z,101340.25
2022-10-12T23:23:45.724Z,101350.47
2022-10-12T23:26:21.961Z,101353.13
2022-10-12T23:28:49.531Z,101342.66
2022-10-12T23:31:23.097Z,101346.03
2022-10-12T23:33:54.048Z,101347.34
2022-10-12T23:36:21.033Z,101342.75
2022-10-12T23:38:48.014Z,101341.09
2022-10-12T23:41:15.118Z,101342.81
2022-10-12T23:43:42.427Z,101346.78
2022-10-12T23:46:12.175Z,101338.63
2022-10-12T23:48:39.983Z,101346.59
2022-10-12T23:51:09.178Z,101340.63
2022-10-12T23:53:37.086Z,101336.97
2022-10-12T23:56:06.575Z,101349.47
2022-10-12T23:58:34.263Z,101342.84
